createdAt,value
2023-01-30T00:00:09.513Z,34.28
2023-01-30T00:02:36.868Z,37.33
2023-01-30T00:05:04.538Z,47.73
2023-01-30T00:07:31.925Z,40.10
2023-01-30T00:09:59.190Z,37.47
2023-01-30T00:12:26.490Z,31.48
2023-01-30T00:14:53.733Z,32.10
2023-01-30T00:17:21.138Z,25.80
2023-01-30T00:19:48.414Z,33.30
2023-01-30T00:22:15.824Z,33.10
2023-01-30T00:24:43.195Z,35.80
2023-01-30T00:27:10.616Z,33.85
2023-01-30T00:29:37.863Z,38.40
2023-01-30T00:32:05.338Z,32.58
2023-01-30T00:34:32.914Z,34.10
2023-01-30T00:37:08.043Z,33.70
2023-01-30T00:39:35.955Z,26.58
2023-01-30T00:42:21.844Z,28.00
2023-01-30T00:45:08.146Z,30.33
2023-01-30T00:47:35.497Z,28.83
2023-01-30T00:50:02.768Z,27.10
2023-01-30T00:52:30.150Z,31.38
2023-01-30T00:54:57.405Z,25.63
2023-01-30T00:57:24.790Z,26.27
2023-01-30T00:59:52.060Z,33.67
2023-01-30T01:02:19.423Z,31.63
2023-01-30T01:04:46.689Z,28.05
2023-01-30T01:07:14.501Z,27.23
2023-01-30T01:09:42.072Z,24.55
2023-01-30T01:12:09.586Z,33.22
2023-01-30T01:14:36.840Z,27.30
2023-01-30T01:17:04.352Z,25.15
2023-01-30T01:19:31.676Z,27.10
2023-01-30T01:21:59.957Z,30.48
2023-01-30T01:24:27.998Z,27.45
2023-01-30T01:26:55.389Z,23.98
2023-01-30T01:29:22.664Z,32.15
2023-01-30T01:31:50.855Z,21.17
2023-01-30T01:34:18.162Z,29.05
2023-01-30T01:36:54.020Z,29.55
2023-01-30T01:39:22.314Z,27.52
2023-01-30T01:41:51.065Z,25.52
2023-01-30T01:44:18.445Z,26.57
2023-01-30T01:46:52.744Z,25.42
2023-01-30T01:49:27.875Z,32.00
2023-01-30T01:52:07.904Z,28.30
2023-01-30T01:54:47.277Z,27.00
2023-01-30T01:57:27.434Z,29.97
2023-01-30T02:00:02.650Z,25.23
2023-01-30T02:02:41.478Z,27.13
2023-01-30T02:05:11.382Z,27.30
2023-01-30T02:07:50.719Z,29.30
2023-01-30T02:10:23.421Z,30.10
2023-01-30T02:12:50.983Z,25.13
2023-01-30T02:15:19.207Z,29.70
2023-01-30T02:17:46.865Z,32.63
2023-01-30T02:20:42.098Z,27.25
2023-01-30T02:23:29.862Z,33.80
2023-01-30T02:26:25.184Z,29.77
2023-01-30T02:29:08.954Z,25.83
2023-01-30T02:31:57.768Z,29.52
2023-01-30T02:34:47.904Z,24.60
2023-01-30T02:37:40.671Z,30.17
2023-01-30T02:40:11.874Z,29.33
2023-01-30T02:42:46.027Z,28.42
2023-01-30T02:45:18.479Z,31.00
2023-01-30T02:47:57.269Z,29.90
2023-01-30T02:50:26.941Z,34.20
2023-01-30T02:52:54.698Z,31.08
2023-01-30T02:55:27.388Z,27.77
2023-01-30T02:57:57.039Z,32.97
2023-01-30T03:00:40.802Z,29.02
2023-01-30T03:03:30.125Z,27.77
2023-01-30T03:06:09.720Z,31.08
2023-01-30T03:09:12.525Z,27.02
2023-01-30T03:11:42.997Z,25.38
2023-01-30T03:14:45.940Z,23.33
2023-01-30T03:17:13.308Z,23.40
2023-01-30T03:19:41.816Z,25.75
2023-01-30T03:22:09.221Z,26.52
2023-01-30T03:24:36.499Z,27.23
2023-01-30T03:27:09.253Z,27.75
2023-01-30T03:29:37.496Z,24.30
2023-01-30T03:32:06.255Z,32.65
2023-01-30T03:34:33.701Z,29.42
2023-01-30T03:37:01.005Z,32.53
2023-01-30T03:39:28.460Z,31.52
2023-01-30T03:41:56.461Z,26.70
2023-01-30T03:44:23.916Z,33.05
2023-01-30T03:46:51.313Z,30.10
2023-01-30T03:49:20.803Z,28.73
2023-01-30T03:51:48.529Z,27.75
2023-01-30T03:54:15.949Z,32.33
2023-01-30T03:56:43.710Z,28.60
2023-01-30T03:59:11.351Z,23.98
2023-01-30T04:01:45.129Z,29.40
2023-01-30T04:04:13.040Z,26.48
2023-01-30T04:06:40.452Z,23.47
2023-01-30T04:09:07.783Z,24.92
2023-01-30T04:11:40.526Z,28.60
2023-01-30T04:14:07.975Z,27.80
2023-01-30T04:16:43.884Z,23.85
2023-01-30T04:19:32.603Z,27.27
2023-01-30T04:22:00.105Z,25.25
2023-01-30T04:24:27.430Z,25.35
2023-01-30T04:26:55.015Z,26.55
2023-01-30T04:29:22.346Z,24.98
2023-01-30T04:31:51.801Z,25.30
2023-01-30T04:34:22.585Z,23.70
2023-01-30T04:36:50.038Z,25.42
2023-01-30T04:39:19.424Z,29.63
2023-01-30T04:41:47.924Z,28.20
2023-01-30T04:44:15.291Z,24.07
2023-01-30T04:47:05.571Z,22.00
2023-01-30T04:49:32.991Z,25.02
2023-01-30T04:52:01.282Z,25.23
2023-01-30T04:54:28.659Z,24.92
2023-01-30T04:56:55.982Z,25.07
2023-01-30T04:59:23.961Z,18.77
2023-01-30T05:01:52.385Z,21.75
2023-01-30T05:04:20.732Z,24.75
2023-01-30T05:06:48.051Z,25.92
2023-01-30T05:09:15.446Z,26.00
2023-01-30T05:11:42.899Z,24.05
2023-01-30T05:14:10.369Z,24.33
2023-01-30T05:16:37.753Z,26.00
2023-01-30T05:19:05.110Z,18.60
2023-01-30T05:21:32.486Z,20.63
2023-01-30T05:23:59.955Z,19.75
2023-01-30T05:26:27.395Z,22.80
2023-01-30T05:28:55.759Z,18.23
2023-01-30T05:31:23.229Z,22.77
2023-01-30T05:33:52.205Z,23.20
2023-01-30T05:36:20.344Z,22.77
2023-01-30T05:38:47.695Z,23.30
2023-01-30T05:41:15.409Z,17.45
2023-01-30T05:43:43.213Z,22.75
2023-01-30T05:46:11.397Z,23.70
2023-01-30T05:48:38.696Z,25.52
2023-01-30T05:51:06.077Z,23.05
2023-01-30T05:53:39.675Z,28.42
2023-01-30T05:56:12.280Z,22.45
2023-01-30T05:58:39.753Z,28.07
2023-01-30T06:01:09.802Z,31.60
2023-01-30T06:03:37.282Z,28.45
2023-01-30T06:06:05.732Z,23.98
2023-01-30T06:08:33.904Z,29.92
2023-01-30T06:11:09.407Z,48.13
2023-01-30T06:13:37.186Z,51.42
2023-01-30T06:16:05.886Z,41.25
2023-01-30T06:18:35.280Z,27.98
2023-01-30T06:21:03.323Z,25.95
2023-01-30T06:23:30.820Z,25.23
2023-01-30T06:25:58.351Z,23.90
2023-01-30T06:28:26.182Z,32.55
2023-01-30T06:30:54.381Z,23.73
2023-01-30T06:33:22.075Z,23.38
2023-01-30T06:35:50.435Z,22.33
2023-01-30T06:38:18.218Z,26.73
2023-01-30T06:40:46.781Z,18.55
2023-01-30T06:43:14.775Z,22.90
2023-01-30T06:45:42.045Z,22.08
2023-01-30T06:48:29.723Z,21.63
2023-01-30T06:50:57.509Z,21.70
2023-01-30T06:53:30.585Z,26.52
2023-01-30T06:55:59.367Z,27.05
2023-01-30T06:58:30.226Z,26.38
2023-01-30T07:01:02.598Z,25.67
2023-01-30T07:03:29.970Z,21.58
2023-01-30T07:05:57.574Z,25.10
2023-01-30T07:08:27.382Z,24.42
2023-01-30T07:10:54.920Z,27.92
2023-01-30T07:13:22.752Z,24.47
2023-01-30T07:15:50.714Z,25.63
2023-01-30T07:18:19.250Z,25.10
2023-01-30T07:20:48.022Z,30.67
2023-01-30T07:23:15.949Z,24.63
2023-01-30T07:25:44.180Z,26.17
2023-01-30T07:28:11.772Z,29.02
2023-01-30T07:30:39.401Z,23.30
2023-01-30T07:33:07.048Z,15.68
2023-01-30T07:35:36.077Z,24.00
2023-01-30T07:38:04.412Z,22.90
2023-01-30T07:40:33.868Z,22.08
2023-01-30T07:43:05.356Z,20.92
2023-01-30T07:45:47.775Z,23.45
2023-01-30T07:48:20.795Z,28.50
2023-01-30T07:50:48.441Z,28.80
2023-01-30T07:53:16.998Z,18.67
2023-01-30T07:56:01.943Z,14.32
2023-01-30T07:58:36.147Z,18.55
2023-01-30T08:01:06.204Z,23.98
2023-01-30T08:03:34.643Z,26.10
2023-01-30T08:06:02.166Z,32.65
2023-01-30T08:08:37.504Z,25.05
2023-01-30T08:11:06.238Z,34.03
2023-01-30T08:13:34.284Z,22.30
2023-01-30T08:16:02.759Z,22.53
2023-01-30T08:18:30.751Z,33.90
2023-01-30T08:21:08.929Z,29.83
2023-01-30T08:23:36.489Z,30.33
2023-01-30T08:26:05.107Z,27.88
2023-01-30T08:28:32.676Z,34.83
2023-01-30T08:31:04.958Z,29.83
2023-01-30T08:33:36.116Z,33.72
2023-01-30T08:36:03.941Z,27.88
2023-01-30T08:38:31.343Z,35.90
2023-01-30T08:41:12.321Z,30.33
2023-01-30T08:43:40.578Z,34.35
2023-01-30T08:46:15.858Z,32.20
2023-01-30T08:48:49.942Z,29.73
2023-01-30T08:51:18.028Z,33.55
2023-01-30T08:53:45.346Z,34.17
2023-01-30T08:56:13.221Z,27.73
2023-01-30T08:58:41.045Z,30.55
2023-01-30T09:01:08.614Z,25.13
2023-01-30T09:03:36.311Z,36.85
2023-01-30T09:06:04.103Z,34.23
2023-01-30T09:08:32.943Z,28.38
2023-01-30T09:11:01.379Z,31.15
2023-01-30T09:13:33.933Z,31.45
2023-01-30T09:16:01.521Z,34.67
2023-01-30T09:18:29.076Z,37.93
2023-01-30T09:21:06.124Z,29.92
2023-01-30T09:23:33.567Z,34.22
2023-01-30T09:26:03.167Z,31.67
2023-01-30T09:28:30.879Z,32.97
2023-01-30T09:31:01.349Z,31.13
2023-01-30T09:33:28.993Z,29.58
2023-01-30T09:35:56.492Z,29.65
2023-01-30T09:38:24.280Z,29.67
2023-01-30T09:40:57.638Z,34.15
2023-01-30T09:43:39.948Z,20.33
2023-01-30T09:46:38.279Z,29.30
2023-01-30T09:49:24.736Z,28.10
2023-01-30T09:52:14.902Z,28.27
2023-01-30T09:54:43.534Z,32.53
2023-01-30T09:57:22.505Z,28.90
2023-01-30T10:00:04.817Z,28.98
2023-01-30T10:03:00.338Z,26.80
2023-01-30T10:05:37.516Z,29.52
2023-01-30T10:08:15.369Z,25.85
2023-01-30T10:10:55.019Z,28.83
2023-01-30T10:13:35.264Z,23.77
2023-01-30T10:16:11.343Z,29.58
2023-01-30T10:18:57.146Z,25.70
2023-01-30T10:21:39.785Z,28.30
2023-01-30T10:24:25.407Z,24.73
2023-01-30T10:26:53.080Z,22.80
2023-01-30T10:29:26.837Z,24.70
2023-01-30T10:32:03.212Z,28.88
2023-01-30T10:34:35.687Z,24.08
2023-01-30T10:37:08.862Z,22.30
2023-01-30T10:40:03.133Z,26.98
2023-01-30T10:43:15.636Z,25.58
2023-01-30T10:46:10.468Z,21.60
2023-01-30T10:49:02.269Z,19.38
2023-01-30T10:51:51.435Z,19.07
2023-01-30T10:54:46.127Z,18.45
2023-01-30T10:57:19.355Z,24.90
2023-01-30T11:00:08.243Z,23.75
2023-01-30T11:02:55.606Z,25.08
2023-01-30T11:05:25.440Z,29.83
2023-01-30T11:07:52.943Z,25.50
2023-01-30T11:10:22.902Z,23.92
2023-01-30T11:12:54.461Z,22.27
2023-01-30T11:16:08.410Z,25.75
2023-01-30T11:19:20.833Z,25.97
2023-01-30T11:21:54.858Z,25.63
2023-01-30T11:24:42.161Z,26.17
2023-01-30T11:27:11.864Z,26.65
2023-01-30T11:29:39.686Z,24.17
2023-01-30T11:32:16.132Z,21.60
2023-01-30T11:34:44.138Z,27.70
2023-01-30T11:37:39.327Z,30.83
2023-01-30T11:40:19.915Z,25.65
2023-01-30T11:42:52.200Z,26.42
2023-01-30T11:45:20.410Z,31.67
2023-01-30T11:47:57.917Z,30.80
2023-01-30T11:50:33.347Z,34.72
2023-01-30T11:53:08.720Z,30.55
2023-01-30T11:55:37.359Z,34.03
2023-01-30T11:58:22.825Z,21.47
2023-01-30T12:00:50.648Z,29.90
2023-01-30T12:03:23.455Z,29.30
2023-01-30T12:05:55.691Z,25.33
2023-01-30T12:08:40.989Z,26.58
2023-01-30T12:11:32.582Z,25.70
2023-01-30T12:14:26.177Z,12.70
2023-01-30T12:16:53.731Z,29.55
2023-01-30T12:19:33.089Z,28.85
2023-01-30T12:22:18.875Z,25.48
2023-01-30T12:24:49.344Z,31.03
2023-01-30T12:27:40.536Z,25.17
2023-01-30T12:30:23.145Z,25.77
2023-01-30T12:32:56.110Z,19.58
2023-01-30T12:35:28.728Z,35.10
2023-01-30T12:38:19.422Z,37.73
2023-01-30T12:41:12.086Z,31.75
2023-01-30T12:44:07.520Z,45.25
2023-01-30T12:46:50.851Z,24.90
2023-01-30T12:49:34.516Z,31.20
2023-01-30T12:52:04.777Z,11.63
2023-01-30T12:54:32.126Z,37.55
2023-01-30T12:57:08.322Z,29.52
2023-01-30T12:59:51.726Z,27.00
2023-01-30T13:02:29.271Z,28.55
2023-01-30T13:05:23.647Z,32.47
2023-01-30T13:08:10.071Z,26.25
2023-01-30T13:11:15.868Z,26.30
2023-01-30T13:14:11.961Z,24.77
2023-01-30T13:17:13.574Z,17.80
2023-01-30T13:19:49.287Z,29.30
2023-01-30T13:22:19.554Z,26.52
2023-01-30T13:25:06.127Z,31.67
2023-01-30T13:27:36.021Z,19.33
2023-01-30T13:30:05.882Z,32.00
2023-01-30T13:32:44.785Z,28.83
2023-01-30T13:35:32.784Z,29.55
2023-01-30T13:38:00.450Z,30.42
2023-01-30T13:40:28.930Z,32.03
2023-01-30T13:42:57.413Z,21.90
2023-01-30T13:47:17.619Z,28.40
2023-01-30T13:49:56.643Z,24.92
2023-01-30T13:52:27.536Z,23.98
2023-01-30T13:55:11.274Z,23.30
2023-01-30T13:57:53.749Z,20.40
2023-01-30T14:00:27.418Z,19.47
2023-01-30T14:03:19.172Z,34.55
2023-01-30T14:05:56.916Z,25.02
2023-01-30T14:08:26.011Z,23.42
2023-01-30T14:11:46.164Z,26.75
2023-01-30T14:14:19.767Z,24.23
2023-01-30T14:17:11.968Z,21.50
2023-01-30T14:19:43.291Z,22.90
2023-01-30T14:22:34.135Z,26.25
2023-01-30T14:25:28.354Z,21.50
2023-01-30T14:28:02.016Z,20.00
2023-01-30T14:30:35.579Z,25.85
2023-01-30T14:33:04.543Z,22.20
2023-01-30T14:35:32.333Z,21.38
2023-01-30T14:38:17.803Z,26.45
2023-01-30T14:41:08.753Z,25.13
2023-01-30T14:43:42.481Z,22.40
2023-01-30T14:46:19.533Z,21.05
2023-01-30T14:48:54.090Z,22.65
2023-01-30T14:51:25.373Z,21.20
2023-01-30T14:54:11.268Z,23.27
2023-01-30T14:56:59.979Z,25.75
2023-01-30T14:59:38.461Z,23.30
2023-01-30T15:02:21.583Z,25.35
2023-01-30T15:05:04.282Z,23.25
2023-01-30T15:07:38.075Z,23.30
2023-01-30T15:10:07.243Z,22.65
2023-01-30T15:13:05.848Z,24.27
2023-01-30T15:16:02.505Z,26.55
2023-01-30T15:18:55.624Z,25.27
2023-01-30T15:21:25.645Z,23.23
2023-01-30T15:24:14.847Z,26.50
2023-01-30T15:26:57.603Z,23.27
2023-01-30T15:29:47.666Z,25.30
2023-01-30T15:32:24.578Z,27.15
2023-01-30T15:35:20.937Z,28.10
2023-01-30T15:37:53.092Z,25.95
2023-01-30T15:40:28.385Z,25.23
2023-01-30T15:43:22.141Z,25.55
2023-01-30T15:46:16.237Z,27.75
2023-01-30T15:48:59.402Z,32.70
2023-01-30T15:51:27.904Z,27.63
2023-01-30T15:53:56.170Z,29.90
2023-01-30T15:56:25.350Z,29.40
2023-01-30T15:58:52.819Z,32.45
2023-01-30T16:01:21.586Z,32.53
2023-01-30T16:03:50.300Z,29.58
2023-01-30T16:06:36.829Z,30.98
2023-01-30T16:09:05.433Z,26.65
2023-01-30T16:11:41.282Z,37.40
2023-01-30T16:14:13.553Z,23.97
2023-01-30T16:16:49.072Z,31.23
2023-01-30T16:19:29.682Z,27.75
2023-01-30T16:22:01.774Z,26.88
2023-01-30T16:24:32.080Z,26.13
2023-01-30T16:27:02.651Z,29.70
2023-01-30T16:29:31.893Z,24.75
2023-01-30T16:31:59.652Z,28.40
2023-01-30T16:34:35.101Z,28.48
2023-01-30T16:37:05.727Z,25.58
2023-01-30T16:39:35.032Z,28.43
2023-01-30T16:42:04.262Z,33.10
2023-01-30T16:44:32.144Z,23.15
2023-01-30T16:47:06.635Z,34.05
2023-01-30T16:49:37.330Z,33.13
2023-01-30T16:52:24.639Z,24.00
2023-01-30T16:54:57.119Z,30.75
2023-01-30T16:57:45.666Z,28.95
2023-01-30T17:00:20.855Z,40.50
2023-01-30T17:02:58.666Z,63.90
2023-01-30T17:05:27.800Z,46.90
2023-01-30T17:07:56.389Z,42.35
2023-01-30T17:10:29.943Z,51.97
2023-01-30T17:12:57.756Z,29.75
2023-01-30T17:15:29.886Z,36.90
2023-01-30T17:17:57.358Z,40.13
2023-01-30T17:20:24.816Z,42.47
2023-01-30T17:22:57.854Z,42.58
2023-01-30T17:25:38.300Z,38.70
2023-01-30T17:28:07.052Z,43.05
2023-01-30T17:30:35.296Z,42.30
2023-01-30T17:33:02.876Z,37.17
2023-01-30T17:35:30.255Z,37.95
2023-01-30T17:38:05.184Z,43.17
2023-01-30T17:40:37.214Z,37.05
2023-01-30T17:43:05.019Z,33.90
2023-01-30T17:45:32.304Z,44.00
2023-01-30T17:47:59.746Z,36.65
2023-01-30T17:50:28.612Z,42.47
2023-01-30T17:52:56.104Z,33.08
2023-01-30T17:55:23.413Z,30.73
2023-01-30T17:57:50.862Z,39.45
2023-01-30T18:00:19.544Z,49.95
2023-01-30T18:02:47.541Z,50.83
2023-01-30T18:05:15.079Z,55.85
2023-01-30T18:07:42.755Z,55.57
2023-01-30T18:10:15.254Z,53.35
2023-01-30T18:12:42.986Z,57.35
2023-01-30T18:15:11.937Z,41.90
2023-01-30T18:17:42.799Z,45.47
2023-01-30T18:20:11.865Z,39.87
2023-01-30T18:22:39.192Z,50.58
2023-01-30T18:25:07.215Z,41.22
2023-01-30T18:27:35.161Z,65.57
2023-01-30T18:30:03.559Z,50.15
2023-01-30T18:32:33.363Z,57.47
2023-01-30T18:35:03.533Z,59.85
2023-01-30T18:37:31.009Z,108.68
2023-01-30T18:39:58.372Z,113.82
2023-01-30T18:42:25.751Z,72.07
2023-01-30T18:44:53.158Z,76.50
2023-01-30T18:47:20.550Z,76.18
2023-01-30T18:49:47.909Z,54.42
2023-01-30T18:52:15.252Z,54.38
2023-01-30T18:54:43.419Z,54.00
2023-01-30T18:57:10.713Z,51.20
2023-01-30T18:59:39.768Z,46.38
2023-01-30T19:02:07.521Z,46.33
2023-01-30T19:04:34.974Z,34.33
2023-01-30T19:07:02.218Z,46.38
2023-01-30T19:09:29.689Z,49.13
2023-01-30T19:12:15.554Z,41.03
2023-01-30T19:14:42.979Z,48.03
2023-01-30T19:17:11.083Z,40.72
2023-01-30T19:19:38.504Z,42.97
2023-01-30T19:22:05.860Z,46.03
2023-01-30T19:24:33.266Z,48.28
2023-01-30T19:27:00.576Z,53.05
2023-01-30T19:29:27.894Z,47.63
2023-01-30T19:31:55.309Z,46.40
2023-01-30T19:34:22.743Z,44.53
2023-01-30T19:36:50.055Z,54.42
2023-01-30T19:39:17.747Z,49.67
2023-01-30T19:41:45.097Z,45.22
2023-01-30T19:44:12.584Z,47.13
2023-01-30T19:46:40.604Z,41.17
2023-01-30T19:49:08.012Z,37.80
2023-01-30T19:51:35.484Z,51.13
2023-01-30T19:54:05.066Z,53.75
2023-01-30T19:56:32.754Z,50.75
2023-01-30T19:59:00.608Z,49.27
2023-01-30T20:01:30.594Z,52.05
2023-01-30T20:03:58.993Z,59.60
2023-01-30T20:06:28.063Z,52.13
2023-01-30T20:08:58.427Z,55.15
2023-01-30T20:11:25.928Z,58.67
2023-01-30T20:13:53.518Z,52.83
2023-01-30T20:16:22.538Z,47.13
2023-01-30T20:19:00.530Z,50.70
2023-01-30T20:21:28.357Z,45.13
2023-01-30T20:23:55.851Z,43.87
2023-01-30T20:26:24.842Z,45.15
2023-01-30T20:28:54.637Z,41.58
2023-01-30T20:31:26.752Z,43.20
2023-01-30T20:33:56.755Z,38.95
2023-01-30T20:36:25.722Z,37.17
2023-01-30T20:38:53.443Z,31.45
2023-01-30T20:41:22.546Z,21.55
2023-01-30T20:43:52.366Z,17.60
2023-01-30T20:46:21.513Z,13.02
2023-01-30T20:48:49.423Z,10.73
2023-01-30T20:51:21.251Z,10.00
2023-01-30T20:53:50.364Z,7.57
2023-01-30T20:56:18.453Z,5.90
2023-01-30T20:58:45.907Z,7.50
2023-01-30T21:01:17.677Z,4.77
2023-01-30T21:03:46.263Z,6.97
2023-01-30T21:06:13.584Z,4.25
2023-01-30T21:09:01.183Z,5.97
2023-01-30T21:11:28.803Z,6.45
2023-01-30T21:13:56.094Z,4.90
2023-01-30T21:16:33.350Z,4.78
2023-01-30T21:19:03.885Z,3.83
2023-01-30T21:21:34.443Z,4.20
2023-01-30T21:24:04.465Z,6.50
2023-01-30T21:26:33.340Z,6.20
2023-01-30T21:29:01.282Z,7.13
2023-01-30T21:31:29.479Z,7.30
2023-01-30T21:33:57.742Z,8.50
2023-01-30T21:36:25.774Z,10.93
2023-01-30T21:39:11.586Z,14.13
2023-01-30T21:41:46.257Z,14.75
2023-01-30T21:44:13.989Z,7.00
2023-01-30T21:46:42.406Z,7.15
2023-01-30T21:49:09.777Z,5.95
2023-01-30T21:51:37.727Z,6.23
2023-01-30T21:54:05.133Z,6.40
2023-01-30T21:56:32.656Z,2.83
2023-01-30T21:59:00.875Z,4.93
2023-01-30T22:01:28.554Z,3.53
2023-01-30T22:03:57.028Z,3.10
2023-01-30T22:06:24.289Z,3.15
2023-01-30T22:08:58.640Z,4.63
2023-01-30T22:11:26.269Z,2.22
2023-01-30T22:13:53.790Z,4.53
2023-01-30T22:16:23.533Z,4.23
2023-01-30T22:18:55.620Z,5.65
2023-01-30T22:21:24.616Z,3.33
2023-01-30T22:23:52.852Z,6.03
2023-01-30T22:26:21.495Z,2.55
2023-01-30T22:28:48.988Z,4.10
2023-01-30T22:31:17.850Z,3.08
2023-01-30T22:33:45.878Z,2.78
2023-01-30T22:36:13.524Z,3.70
2023-01-30T22:38:48.256Z,2.63
2023-01-30T22:41:18.518Z,2.57
2023-01-30T22:43:55.543Z,3.38
2023-01-30T22:46:25.463Z,2.03
2023-01-30T22:48:53.199Z,4.88
2023-01-30T22:51:25.070Z,3.72
2023-01-30T22:53:54.412Z,6.23
2023-01-30T22:56:23.465Z,3.65
2023-01-30T22:58:51.085Z,4.65
2023-01-30T23:01:28.532Z,3.47
2023-01-30T23:03:58.262Z,3.08
2023-01-30T23:06:25.657Z,3.97
2023-01-30T23:08:53.724Z,2.83
2023-01-30T23:11:23.705Z,3.80
2023-01-30T23:13:52.327Z,3.40
2023-01-30T23:16:21.068Z,3.97
2023-01-30T23:19:01.719Z,4.40
2023-01-30T23:21:36.797Z,2.70
2023-01-30T23:24:18.550Z,4.20
2023-01-30T23:26:47.563Z,4.22
2023-01-30T23:29:16.717Z,6.68
2023-01-30T23:31:44.705Z,3.60
2023-01-30T23:34:14.343Z,3.72
2023-01-30T23:36:41.786Z,3.55
2023-01-30T23:39:12.083Z,3.47
2023-01-30T23:41:39.854Z,2.80
2023-01-30T23:44:07.318Z,4.60
2023-01-30T23:46:39.986Z,4.68
2023-01-30T23:49:09.738Z,4.05
2023-01-30T23:51:38.076Z,2.88
2023-01-30T23:54:06.140Z,2.45
2023-01-30T23:56:35.705Z,2.30
2023-01-30T23:59:03.827Z,3.03
